aviador You're here:

TAPA Decoded Metar

ANTIGUA in LEEWARD ISLANDS
Report Time2017-11-25 07:00:00
UTC Time2017-11-25 07:28:19
Flight Rules mvfr MVFR
WindCalm
Visibility9999 m
Phenomena:N/A
Clouds:Broken 017 Hf
Scattered 036 Hf
Expected CloudBase > 400 ft AGL from Temp-Dew spread
Ceiling1,700 ft
Temp24°C (ISA +9)
Dew Point23°C (94% RH)
QNH1014 hPa
Density Alt1,437 ft
Elevation46 ft
Report Wrong Elevation
Raw Report
METAR TAPA 250700Z 00000KT 9999 BKN017 SCT036 24/23 Q1014 NOSIG=

Extra information for TAPA:More info

Metar Taf Metar & Taf Last 4 Metars F.Rules Stats Wind Profile Meteogram Temp Stats Airport Information Weather charts Add Link Nearby VenuesMetar ALERT Operation Metar Decoded Social comments